Time;durP1;ratioP1;P1;durP2;ratioP2;P2;SDS_P1;SDS_P2;PMS_P1;PMS_P2;Temp;Humidity;BMP_temperature;BMP_pressure;BME280_temperature;BME280_humidity;BME280_pressure;Samples;Min_cycle;Max_cycle;Signal;HPM_P1;HPM_P2
2024/01/02 00:31:13;;;;;;;;;;;;;;;13.52;78.42;99474.77;105951;1255;60461;-80
2024/01/02 00:33:46;;;;;;;;;;;;;;;13.46;79.07;99466.23;105894;1257;60407;-78
2024/01/02 00:36:21;;;;;;;;;;;;;;;13.43;79.35;99470.11;105955;1252;73840;-81
2024/01/02 00:38:49;;;;;;;;;;;;;;;13.35;80.09;99471.80;106420;1251;67638;-78
2024/01/02 00:41:24;;;;;;;;;;;;;;;13.26;80.77;99471.92;106123;1259;72450;-79
2024/01/02 00:44:04;;;;;;;;;;;;;;;13.10;82.36;99475.32;106167;1257;60548;-81
2024/01/02 00:46:32;;;;;;;;;;;;;;;13.13;82.65;99468.00;106151;1256;60338;-78
2024/01/02 00:49:07;;;;;;;;;;;;;;;13.22;82.29;99465.19;106028;1256;72558;-77
2024/01/02 00:51:41;;;;;;;;;;;;;;;13.25;81.53;99468.43;105985;1259;70339;-81
2024/01/02 00:54:15;;;;;;;;;;;;;;;13.25;81.59;99465.11;105954;1257;71476;-80
2024/01/02 00:56:49;;;;;;;;;;;;;;;13.17;81.78;99467.87;106287;1251;61710;-78
2024/01/02 00:59:22;;;;;;;;;;;;;;;13.13;81.91;99467.83;106108;1257;60329;-80
2024/01/02 01:01:56;;;;;;;;;;;;;;;13.07;81.90;99466.39;106226;1252;73231;-81
2024/01/02 01:04:34;;;;;;;;;;;;;;;13.07;81.21;99461.61;105992;1257;67488;-78
2024/01/02 01:07:08;;;;;;;;;;;;;;;13.08;80.68;99462.14;106224;1255;72648;-77
2024/01/02 01:09:43;;;;;;;;;;;;;;;13.03;80.49;99461.04;105975;1259;60365;-80
2024/01/02 01:12:18;;;;;;;;;;;;;;;13.12;79.70;99458.91;105926;1259;60453;-77
2024/01/02 01:14:59;;;;;;;;;;;;;;;13.27;77.92;99459.21;105983;1259;72632;-81
2024/01/02 01:17:35;;;;;;;;;;;;;;;13.21;78.00;99458.32;106031;1251;68666;-77
2024/01/02 01:20:16;;;;;;;;;;;;;;;13.20;78.01;99461.13;106578;1253;73125;-81
2024/01/02 01:22:56;;;;;;;;;;;;;;;13.33;76.26;99465.27;106606;1253;60448;-78
2024/01/02 01:25:30;;;;;;;;;;;;;;;13.37;75.92;99468.91;105964;1257;60624;-78
2024/01/02 01:28:03;;;;;;;;;;;;;;;13.28;76.64;99468.31;105819;1259;73789;-81
2024/01/02 01:30:44;;;;;;;;;;;;;;;13.35;76.19;99468.83;106263;1258;67649;-78
2024/01/02 01:33:24;;;;;;;;;;;;;;;13.34;76.46;99468.69;105997;1253;72617;-78
2024/01/02 01:35:58;;;;;;;;;;;;;;;13.29;76.69;99465.63;106079;1257;61679;-81
2024/01/02 01:38:31;;;;;;;;;;;;;;;13.29;76.56;99467.55;105906;1259;60822;-78
2024/01/02 01:41:10;;;;;;;;;;;;;;;13.35;75.80;99468.83;106796;1256;73858;-78
2024/01/02 01:43:46;;;;;;;;;;;;;;;13.39;75.32;99474.17;106033;1256;68889;-78
2024/01/02 01:46:20;;;;;;;;;;;;;;;13.49;73.84;99475.95;106284;1257;72676;-81
2024/01/02 01:48:48;;;;;;;;;;;;;;;13.62;72.53;99477.64;106195;1257;60451;-82
2024/01/02 01:51:22;;;;;;;;;;;;;;;13.64;71.23;99474.05;105853;1257;60520;-81
2024/01/02 01:53:56;;;;;;;;;;;;;;;13.71;69.20;99476.17;105999;1259;76201;-79
2024/01/02 01:56:30;;;;;;;;;;;;;;;13.85;66.21;99473.77;106300;1257;69391;-80
2024/01/02 01:58:59;;;;;;;;;;;;;;;13.78;64.82;99480.93;106011;1253;72742;-81
2024/01/02 02:01:33;;;;;;;;;;;;;;;13.84;63.26;99479.52;105956;1253;62055;-79
2024/01/02 02:04:13;;;;;;;;;;;;;;;13.84;62.20;99478.16;106118;1255;60566;-81
2024/01/02 02:06:40;;;;;;;;;;;;;;;13.90;60.83;99480.36;106690;1255;73868;-78
2024/01/02 02:09:15;;;;;;;;;;;;;;;14.01;59.65;99480.09;106048;1258;67146;-79
2024/01/02 02:11:49;;;;;;;;;;;;;;;13.95;59.08;99478.33;106167;1254;72408;-78
2024/01/02 02:14:23;;;;;;;;;;;;;;;14.02;58.60;99476.90;105783;1262;60775;-81
2024/01/02 02:16:57;;;;;;;;;;;;;;;13.90;58.79;99472.77;105953;1260;60585;-80
2024/01/02 02:19:31;;;;;;;;;;;;;;;13.87;58.95;99472.10;105945;1258;75672;-81
2024/01/02 02:22:06;;;;;;;;;;;;;;;13.87;58.93;99473.40;106227;1251;69921;-78
2024/01/02 02:24:40;;;;;;;;;;;;;;;13.90;58.63;99477.53;106162;1256;71511;-78
2024/01/02 02:27:13;;;;;;;;;;;;;;;13.98;58.07;99473.26;105677;1251;60468;-78
2024/01/02 02:29:47;;;;;;;;;;;;;;;14.18;56.99;99470.75;106172;1256;60402;-78
2024/01/02 02:32:21;;;;;;;;;;;;;;;14.11;56.57;99475.39;105908;1253;72572;-78
2024/01/02 02:35:02;;;;;;;;;;;;;;;14.02;55.38;99468.59;106034;1257;67119;-77
2024/01/02 02:37:41;;;;;;;;;;;;;;;13.72;55.86;99465.47;106105;1257;71421;-80
2024/01/02 02:40:22;;;;;;;;;;;;;;;13.92;55.13;99463.52;106848;1257;60470;-78
2024/01/02 02:43:02;;;;;;;;;;;;;;;14.20;53.59;99462.60;105894;1256;60337;-78
2024/01/02 02:45:42;;;;;;;;;;;;;;;14.26;53.01;99460.19;106046;1267;74251;-80
2024/01/02 02:48:10;;;;;;;;;;;;;;;14.33;52.32;99458.45;106035;1254;67379;-78
2024/01/02 02:50:50;;;;;;;;;;;;;;;14.24;51.77;99456.30;106017;1257;71396;-79
2024/01/02 02:53:30;;;;;;;;;;;;;;;14.18;51.38;99457.65;105910;1254;60536;-77
2024/01/02 02:56:05;;;;;;;;;;;;;;;14.10;51.27;99460.52;106288;1251;60473;-78
2024/01/02 02:58:39;;;;;;;;;;;;;;;14.20;50.89;99455.33;106051;1251;72684;-80
2024/01/02 03:01:27;;;;;;;;;;;;;;;14.05;50.85;99457.11;106056;1259;67297;-79
2024/01/02 03:04:05;;;;;;;;;;;;;;;14.12;50.58;99446.94;106010;1259;70678;-81
2024/01/02 03:06:44;;;;;;;;;;;;;;;14.18;49.93;99434.42;106329;1260;60430;-78
2024/01/02 03:09:12;;;;;;;;;;;;;;;14.17;49.98;99431.17;107689;1255;60342;-79
2024/01/02 03:11:48;;;;;;;;;;;;;;;14.11;49.77;99425.26;105932;1260;72469;-78
2024/01/02 03:14:21;;;;;;;;;;;;;;;13.95;49.97;99419.32;106245;1257;67473;-80
2024/01/02 03:16:55;;;;;;;;;;;;;;;13.76;50.25;99415.67;106142;1255;72463;-79
2024/01/02 03:19:29;;;;;;;;;;;;;;;13.84;50.02;99416.90;106220;1258;60829;-78
2024/01/02 03:22:04;;;;;;;;;;;;;;;13.80;50.08;99413.09;106046;1251;60524;-77
2024/01/02 03:24:38;;;;;;;;;;;;;;;13.78;50.12;99409.55;106204;1254;71990;-79
2024/01/02 03:27:12;;;;;;;;;;;;;;;13.79;50.14;99407.08;106054;1254;68524;-79
2024/01/02 03:29:46;;;;;;;;;;;;;;;13.82;50.01;99408.54;105948;1259;71827;-78
2024/01/02 03:32:20;;;;;;;;;;;;;;;13.71;50.01;99408.55;106103;1251;60382;-80
2024/01/02 03:34:54;;;;;;;;;;;;;;;13.80;49.89;99400.37;107157;1254;60438;-78
2024/01/02 03:37:28;;;;;;;;;;;;;;;13.93;49.50;99400.88;106185;1255;72573;-79
2024/01/02 03:40:03;;;;;;;;;;;;;;;14.03;48.93;99400.91;106061;1257;67217;-80
2024/01/02 03:42:37;;;;;;;;;;;;;;;13.97;49.15;99396.88;106197;1255;72379;-80
2024/01/02 03:45:11;;;;;;;;;;;;;;;13.95;49.17;99394.35;106121;1257;60562;-78
2024/01/02 03:47:44;;;;;;;;;;;;;;;13.94;49.33;99393.16;106002;1254;60477;-79
2024/01/02 03:50:19;;;;;;;;;;;;;;;13.97;49.16;99400.58;105996;1254;73706;-80
2024/01/02 03:52:59;;;;;;;;;;;;;;;13.92;49.26;99397.81;106004;1256;68674;-78
2024/01/02 03:55:39;;;;;;;;;;;;;;;14.08;48.97;99401.48;106152;1254;72547;-80
2024/01/02 03:58:18;;;;;;;;;;;;;;;14.10;49.00;99397.02;106246;1252;60506;-77
2024/01/02 04:00:53;;;;;;;;;;;;;;;14.03;49.13;99400.27;107107;1253;60447;-80
2024/01/02 04:03:33;;;;;;;;;;;;;;;13.92;49.35;99397.59;106075;1257;73820;-81
2024/01/02 04:06:13;;;;;;;;;;;;;;;13.75;49.82;99394.53;106178;1267;68333;-78
2024/01/02 04:08:47;;;;;;;;;;;;;;;13.73;50.09;99394.36;106239;1257;72720;-78
2024/01/02 04:11:21;;;;;;;;;;;;;;;13.74;50.19;99400.45;106071;1258;60527;-80
2024/01/02 04:14:01;;;;;;;;;;;;;;;13.81;50.21;99397.80;106000;1251;60546;-78
2024/01/02 04:16:34;;;;;;;;;;;;;;;13.87;50.25;99394.02;106098;1252;73861;-81
2024/01/02 04:19:07;;;;;;;;;;;;;;;13.92;50.25;99392.96;106028;1257;67391;-77
2024/01/02 04:21:38;;;;;;;;;;;;;;;14.03;50.03;99390.71;105872;1257;71853;-78
2024/01/02 04:24:16;;;;;;;;;;;;;;;14.17;49.92;99389.33;106121;1256;60469;-79
2024/01/02 04:26:50;;;;;;;;;;;;;;;14.08;50.13;99393.18;106587;1257;60414;-78
2024/01/02 04:29:18;;;;;;;;;;;;;;;14.00;50.40;99391.36;106201;1257;72649;-77
2024/01/02 04:31:46;;;;;;;;;;;;;;;13.99;50.52;99391.40;106013;1256;66465;-78
2024/01/02 04:34:24;;;;;;;;;;;;;;;13.98;50.56;99384.77;105958;1254;71878;-77
2024/01/02 04:37:01;;;;;;;;;;;;;;;13.98;50.62;99389.30;106119;1254;60550;-77
2024/01/02 04:39:28;;;;;;;;;;;;;;;13.93;50.89;99388.48;105959;1254;60325;-79
2024/01/02 04:42:02;;;;;;;;;;;;;;;14.02;50.74;99388.67;106089;1255;73990;-80
2024/01/02 04:44:36;;;;;;;;;;;;;;;14.09;50.61;99386.25;106038;1257;68679;-77
2024/01/02 04:47:04;;;;;;;;;;;;;;;14.04;50.82;99385.95;106706;1251;72720;-80
2024/01/02 04:49:32;;;;;;;;;;;;;;;14.12;50.66;99384.11;105982;1254;60514;-77
2024/01/02 04:52:06;;;;;;;;;;;;;;;14.21;50.53;99381.85;106114;1258;60529;-77
2024/01/02 04:54:41;;;;;;;;;;;;;;;14.26;50.43;99382.86;106208;1257;73832;-82
2024/01/02 04:57:16;;;;;;;;;;;;;;;14.29;50.53;99381.27;105863;1259;67257;-79
2024/01/02 04:59:44;;;;;;;;;;;;;;;14.27;50.55;99380.63;106124;1254;72656;-81
2024/01/02 05:02:22;;;;;;;;;;;;;;;14.28;50.63;99382.60;106089;1257;60613;-80
2024/01/02 05:05:03;;;;;;;;;;;;;;;14.00;51.26;99385.70;106069;1253;60346;-78
2024/01/02 05:07:31;;;;;;;;;;;;;;;13.87;51.86;99386.78;107099;1254;74805;-78
2024/01/02 05:10:06;;;;;;;;;;;;;;;14.03;51.52;99388.02;107033;1254;67129;-79
2024/01/02 05:12:34;;;;;;;;;;;;;;;14.08;51.29;99386.91;105919;1254;72265;-79
2024/01/02 05:15:09;;;;;;;;;;;;;;;14.09;51.34;99385.31;106761;1254;60575;-79
2024/01/02 05:17:37;;;;;;;;;;;;;;;14.29;50.93;99388.86;105910;1259;60335;-82
2024/01/02 05:20:11;;;;;;;;;;;;;;;14.17;51.08;99382.58;105870;1259;71657;-81
2024/01/02 05:22:52;;;;;;;;;;;;;;;14.22;51.10;99388.58;106118;1257;67439;-79
2024/01/02 05:25:43;;;;;;;;;;;;;;;14.07;51.38;99391.89;105887;1258;72728;-79
2024/01/02 05:28:16;;;;;;;;;;;;;;;14.13;51.28;99389.48;105699;1254;61363;-79
2024/01/02 05:30:57;;;;;;;;;;;;;;;14.21;51.28;99394.20;105954;1257;60338;-79
2024/01/02 05:33:36;;;;;;;;;;;;;;;14.14;51.29;99389.60;107286;1257;73670;-80
2024/01/02 05:36:11;;;;;;;;;;;;;;;14.01;51.71;99392.97;106268;1258;68513;-81
2024/01/02 05:38:45;;;;;;;;;;;;;;;13.88;52.01;99397.98;106443;1258;72788;-81
2024/01/02 05:41:25;;;;;;;;;;;;;;;13.98;52.08;99400.61;106538;1254;60543;-82
2024/01/02 05:44:05;;;;;;;;;;;;;;;14.03;51.78;99397.59;106282;1254;60576;-79
2024/01/02 05:46:48;;;;;;;;;;;;;;;14.06;51.72;99393.34;106354;1254;73839;-80
2024/01/02 05:49:16;;;;;;;;;;;;;;;14.14;51.56;99397.09;106397;1256;68709;-83
2024/01/02 05:51:50;;;;;;;;;;;;;;;14.20;51.41;99394.02;106716;1257;71150;-76
2024/01/02 05:54:30;;;;;;;;;;;;;;;14.19;51.47;99396.56;105981;1254;60534;-79
2024/01/02 05:57:04;;;;;;;;;;;;;;;14.29;51.34;99391.29;106050;1251;60484;-81
2024/01/02 05:59:32;;;;;;;;;;;;;;;14.36;51.31;99392.52;106049;1254;73814;-79
2024/01/02 06:02:06;;;;;;;;;;;;;;;14.44;51.28;99390.58;106177;1257;67240;-82
2024/01/02 06:04:40;;;;;;;;;;;;;;;14.61;50.89;99390.34;105924;1257;72662;-80
2024/01/02 06:07:14;;;;;;;;;;;;;;;14.70;50.58;99394.54;105907;1254;60910;-82
2024/01/02 06:09:49;;;;;;;;;;;;;;;14.75;50.55;99403.06;106235;1253;60589;-81
2024/01/02 06:12:22;;;;;;;;;;;;;;;14.78;50.52;99403.42;106215;1251;71642;-79
2024/01/02 06:14:57;;;;;;;;;;;;;;;14.79;50.28;99401.52;106086;1251;67426;-83
2024/01/02 06:17:31;;;;;;;;;;;;;;;14.82;50.31;99399.35;106471;1256;70619;-82
2024/01/02 06:20:11;;;;;;;;;;;;;;;14.74;50.48;99404.68;106390;1254;60391;-80
2024/01/02 06:22:51;;;;;;;;;;;;;;;14.79;50.54;99402.35;106501;1254;60466;-77
2024/01/02 06:25:31;;;;;;;;;;;;;;;14.84;50.78;99399.66;106151;1257;72430;-78
2024/01/02 06:28:11;;;;;;;;;;;;;;;15.00;50.48;99407.88;106796;1253;67110;-78
2024/01/02 06:30:51;;;;;;;;;;;;;;;14.74;51.05;99413.48;106073;1257;70097;-78
2024/01/02 06:33:30;;;;;;;;;;;;;;;14.60;51.46;99409.38;106230;1253;60328;-80
2024/01/02 06:36:11;;;;;;;;;;;;;;;14.51;51.77;99411.83;106164;1254;60657;-80
2024/01/02 06:38:51;;;;;;;;;;;;;;;14.86;51.07;99407.28;106165;1257;72590;-82
2024/01/02 06:41:31;;;;;;;;;;;;;;;14.86;50.50;99401.21;106045;1254;67608;-79
2024/01/02 06:44:11;;;;;;;;;;;;;;;14.95;50.00;99409.73;106110;1257;71454;-80
2024/01/02 06:46:45;;;;;;;;;;;;;;;14.92;50.04;99412.85;106666;1252;60887;-81
2024/01/02 06:49:19;;;;;;;;;;;;;;;14.83;50.10;99412.88;106219;1251;60464;-81
2024/01/02 06:51:53;;;;;;;;;;;;;;;14.79;49.92;99411.79;106150;1253;73820;-78
2024/01/02 06:54:27;;;;;;;;;;;;;;;14.63;50.28;99419.11;105821;1253;68756;-78
2024/01/02 06:57:01;;;;;;;;;;;;;;;14.52;50.76;99428.28;106011;1257;75437;-77
2024/01/02 06:59:35;;;;;;;;;;;;;;;14.61;49.99;99427.73;106028;1253;60897;-80
2024/01/02 07:02:10;;;;;;;;;;;;;;;14.78;49.48;99429.73;105996;1254;60594;-77
2024/01/02 07:04:44;;;;;;;;;;;;;;;14.86;48.77;99429.83;106727;1252;73847;-78
2024/01/02 07:07:19;;;;;;;;;;;;;;;14.72;47.49;99427.79;106078;1251;67145;-80
2024/01/02 07:09:52;;;;;;;;;;;;;;;14.63;46.49;99436.91;106119;1256;72309;-78
2024/01/02 07:12:29;;;;;;;;;;;;;;;14.67;45.94;99433.14;106119;1254;60438;-81
2024/01/02 07:15:03;;;;;;;;;;;;;;;14.54;45.25;99444.16;106022;1257;60443;-79
2024/01/02 07:17:37;;;;;;;;;;;;;;;14.55;44.92;99451.29;106127;1255;72660;-79
2024/01/02 07:20:12;;;;;;;;;;;;;;;14.65;44.63;99453.73;106057;1251;68960;-80
2024/01/02 07:22:47;;;;;;;;;;;;;;;14.57;44.53;99454.11;106697;1257;72643;-79
2024/01/02 07:25:21;;;;;;;;;;;;;;;14.53;44.83;99449.30;106064;1253;60417;-78
2024/01/02 07:27:54;;;;;;;;;;;;;;;14.66;44.51;99460.05;105990;1251;60533;-80
2024/01/02 07:30:28;;;;;;;;;;;;;;;14.73;44.49;99458.30;106109;1251;72578;-81
2024/01/02 07:33:03;;;;;;;;;;;;;;;14.71;44.35;99461.43;106759;1253;67158;-81
2024/01/02 07:35:37;;;;;;;;;;;;;;;14.73;44.40;99463.34;106103;1257;71106;-81
2024/01/02 07:38:11;;;;;;;;;;;;;;;14.69;44.67;99473.38;106020;1254;60421;-80
2024/01/02 07:40:45;;;;;;;;;;;;;;;14.66;44.84;99473.55;106277;1254;60430;-81
2024/01/02 07:43:19;;;;;;;;;;;;;;;14.64;45.11;99476.70;105911;1253;72576;-82
2024/01/02 07:45:55;;;;;;;;;;;;;;;14.61;45.12;99479.44;106174;1260;69221;-80
2024/01/02 07:48:29;;;;;;;;;;;;;;;14.79;44.57;99488.55;106272;1257;72701;-80
2024/01/02 07:51:03;;;;;;;;;;;;;;;14.91;44.00;99486.05;106124;1252;60863;-80
2024/01/02 07:53:37;;;;;;;;;;;;;;;14.97;43.62;99492.67;106905;1257;60429;-80
2024/01/02 07:56:12;;;;;;;;;;;;;;;14.84;43.40;99498.25;106174;1251;73842;-80
2024/01/02 07:58:46;;;;;;;;;;;;;;;14.71;43.07;99497.98;106025;1259;67961;-81
2024/01/02 08:01:22;;;;;;;;;;;;;;;14.64;42.99;99501.92;106079;1251;72645;-80
2024/01/02 08:03:56;;;;;;;;;;;;;;;14.75;42.72;99506.77;106439;1256;60524;-80
2024/01/02 08:06:30;;;;;;;;;;;;;;;14.64;42.69;99508.11;106204;1253;60467;-80
2024/01/02 08:09:11;;;;;;;;;;;;;;;14.16;43.48;99512.81;106125;1251;71701;-80
2024/01/02 08:11:51;;;;;;;;;;;;;;;13.00;45.63;99519.55;106127;1257;67268;-79
2024/01/02 08:14:31;;;;;;;;;;;;;;;12.94;45.86;99515.14;106426;1254;72808;-79
2024/01/02 08:17:11;;;;;;;;;;;;;;;12.79;46.14;99521.54;106199;1251;60314;-79
2024/01/02 08:19:51;;;;;;;;;;;;;;;12.98;45.93;99524.17;105817;1251;328998;-78
2024/01/02 08:22:31;;;;;;;;;;;;;;;13.02;45.64;99524.35;106011;1254;73019;-81
2024/01/02 08:25:11;;;;;;;;;;;;;;;13.14;45.52;99528.13;106497;1256;68532;-81
2024/01/02 08:27:52;;;;;;;;;;;;;;;12.86;46.27;99532.77;106027;1258;71319;-79
2024/01/02 12:30:44;;;;;;;;;;;;;;;11.44;46.20;99679.48;106251;1254;62244;-78
2024/01/02 12:33:30;;;;;;;;;;;;;;;11.17;46.48;99683.39;106455;1254;60962;-78
2024/01/02 12:36:30;;;;;;;;;;;;;;;11.11;46.57;99689.08;105798;1254;72756;-80
2024/01/02 12:39:10;;;;;;;;;;;;;;;11.07;46.39;99695.93;105868;1254;71615;-81
2024/01/02 12:41:51;;;;;;;;;;;;;;;10.95;46.53;99703.95;105924;1256;73810;-81
2024/01/02 12:44:31;;;;;;;;;;;;;;;10.54;47.36;99704.35;105984;1257;60515;-79
2024/01/02 12:47:11;;;;;;;;;;;;;;;10.49;47.69;99711.27;106094;1256;60762;-78
2024/01/02 12:49:54;;;;;;;;;;;;;;;10.54;47.52;99715.83;105889;1256;74943;-78
2024/01/02 12:53:04;;;;;;;;;;;;;;;10.53;47.45;99716.61;105917;1254;68512;-78
2024/01/02 12:55:49;;;;;;;;;;;;;;;10.57;47.37;99722.13;105819;1258;75550;-81
2024/01/02 12:58:29;;;;;;;;;;;;;;;10.56;47.29;99724.45;106416;1255;60433;-80
2024/01/02 13:01:03;;;;;;;;;;;;;;;10.60;46.81;99730.00;105800;1253;60564;-81
2024/01/02 13:03:37;;;;;;;;;;;;;;;10.62;46.52;99730.90;105932;1256;74098;-78
2024/01/02 13:06:12;;;;;;;;;;;;;;;10.68;46.10;99730.77;106007;1254;70394;-81
2024/01/02 13:08:48;;;;;;;;;;;;;;;10.60;46.37;99733.56;106042;1257;72636;-78
2024/01/02 13:11:22;;;;;;;;;;;;;;;10.61;46.11;99731.20;106034;1258;60521;-81
2024/01/02 13:13:56;;;;;;;;;;;;;;;10.61;45.94;99737.08;106256;1256;60518;-81
2024/01/02 13:16:30;;;;;;;;;;;;;;;10.70;45.56;99740.92;106200;1254;72925;-78
2024/01/02 13:19:04;;;;;;;;;;;;;;;10.72;45.63;99747.13;106087;1254;71282;-78
2024/01/02 13:21:38;;;;;;;;;;;;;;;10.73;45.89;99749.64;106105;1254;72772;-80
2024/01/02 13:24:08;;;;;;;;;;;;;;;10.72;45.96;99748.89;106051;1259;60527;-81
2024/01/02 13:26:40;;;;;;;;;;;;;;;10.70;45.94;99752.15;106153;1253;61031;-81
2024/01/02 13:29:15;;;;;;;;;;;;;;;10.63;45.82;99756.11;106035;1256;75913;-79
2024/01/02 13:31:55;;;;;;;;;;;;;;;10.54;45.88;99761.52;106098;1253;69806;-79
2024/01/02 13:34:29;;;;;;;;;;;;;;;10.37;45.91;99764.44;106097;1254;72606;-79
2024/01/02 13:37:03;;;;;;;;;;;;;;;10.30;45.97;99769.27;106188;1259;60805;-82
2024/01/02 13:39:42;;;;;;;;;;;;;;;10.30;45.57;99770.09;106078;1253;61222;-78
2024/01/02 13:42:19;;;;;;;;;;;;;;;10.20;45.64;99772.59;106075;1255;73782;-78
2024/01/02 13:44:56;;;;;;;;;;;;;;;9.99;45.96;99775.21;106080;1254;68644;-78
2024/01/02 13:47:38;;;;;;;;;;;;;;;10.00;46.00;99772.64;106106;1256;75742;-79
2024/01/02 13:50:12;;;;;;;;;;;;;;;9.97;46.06;99773.98;106512;1259;60920;-78
2024/01/02 13:52:46;;;;;;;;;;;;;;;9.87;46.09;99777.88;107163;1254;60499;-78
2024/01/02 13:55:25;;;;;;;;;;;;;;;9.80;46.15;99778.71;107167;1255;72602;-79
2024/01/02 13:57:59;;;;;;;;;;;;;;;9.90;46.09;99779.27;105969;1254;72137;-80
2024/01/02 14:00:36;;;;;;;;;;;;;;;9.88;45.72;99782.23;106192;1254;73753;-80
2024/01/02 14:03:11;;;;;;;;;;;;;;;9.83;45.83;99787.36;106094;1259;60546;-79
2024/01/02 14:05:56;;;;;;;;;;;;;;;9.84;45.75;99788.77;106032;1258;60754;-80
2024/01/02 14:08:32;;;;;;;;;;;;;;;9.83;45.72;99794.49;106006;1251;73910;-81
2024/01/02 14:11:06;;;;;;;;;;;;;;;9.81;45.83;99792.72;106144;1257;66818;-81
2024/01/02 14:13:42;;;;;;;;;;;;;;;9.73;45.84;99795.66;106002;1257;70619;-81
2024/01/02 14:16:16;;;;;;;;;;;;;;;9.73;45.89;99796.48;105961;1253;60433;-78
2024/01/02 14:18:49;;;;;;;;;;;;;;;9.64;45.99;99802.84;106310;1255;60362;-78
2024/01/02 14:21:24;;;;;;;;;;;;;;;9.66;46.00;99803.80;105859;1251;75240;-79
2024/01/02 14:23:59;;;;;;;;;;;;;;;9.70;46.11;99808.67;106010;1253;69818;-79
2024/01/02 14:26:42;;;;;;;;;;;;;;;9.82;45.69;99810.55;106368;1258;71406;-80
2024/01/02 14:29:21;;;;;;;;;;;;;;;9.72;46.03;99816.52;105832;1253;60786;-78
2024/01/02 14:32:04;;;;;;;;;;;;;;;9.75;45.83;99821.71;106097;1253;60534;-80
2024/01/02 14:34:58;;;;;;;;;;;;;;;9.77;45.90;99823.83;107550;1253;72589;-78
2024/01/02 14:37:35;;;;;;;;;;;;;;;9.74;45.58;99827.06;106306;1252;68547;-81
2024/01/02 14:40:21;;;;;;;;;;;;;;;9.48;46.00;99831.91;106139;1251;73941;-80
2024/01/02 14:43:00;;;;;;;;;;;;;;;9.29;46.62;99838.95;106356;1257;60469;-79
2024/01/02 14:45:43;;;;;;;;;;;;;;;9.23;46.80;99834.86;106214;1256;61605;-79
2024/01/02 14:48:27;;;;;;;;;;;;;;;9.33;46.54;99832.59;106443;1253;74752;-79
2024/01/02 14:51:20;;;;;;;;;;;;;;;9.28;46.37;99829.27;106117;1256;68740;-80
2024/01/02 14:53:57;;;;;;;;;;;;;;;9.29;46.50;99831.91;105954;1253;73140;-80
2024/01/02 14:56:46;;;;;;;;;;;;;;;9.31;46.51;99835.11;106065;1253;61609;-78
2024/01/02 14:59:38;;;;;;;;;;;;;;;8.72;47.54;99841.22;106122;1253;60856;-80
2024/01/02 15:02:19;;;;;;;;;;;;;;;8.49;48.07;99845.20;106039;1252;74837;-78
2024/01/02 15:05:09;;;;;;;;;;;;;;;8.56;48.01;99851.27;106070;1256;67098;-80
2024/01/02 15:08:10;;;;;;;;;;;;;;;8.68;47.83;99849.03;106578;1251;74716;-79
2024/01/02 15:10:54;;;;;;;;;;;;;;;8.73;47.86;99855.98;107347;1257;60517;-78
2024/01/02 15:13:36;;;;;;;;;;;;;;;8.80;47.54;99858.77;105959;1251;62662;-79
2024/01/02 15:16:16;;;;;;;;;;;;;;;8.60;47.59;99856.48;106283;1251;74185;-78
2024/01/02 15:18:59;;;;;;;;;;;;;;;8.21;48.10;99860.77;106083;1253;68406;-80
2024/01/02 15:21:44;;;;;;;;;;;;;;;8.04;48.65;99871.70;106199;1254;71183;-80
2024/01/02 15:24:25;;;;;;;;;;;;;;;8.04;48.56;99873.39;105984;1256;60495;-79
2024/01/02 15:27:07;;;;;;;;;;;;;;;8.03;48.49;99875.84;106103;1253;60436;-80
2024/01/02 15:29:55;;;;;;;;;;;;;;;7.90;48.58;99883.06;106050;1258;76167;-78
2024/01/02 15:32:39;;;;;;;;;;;;;;;7.75;49.12;99881.89;106388;1253;70991;-80
2024/01/02 15:35:18;;;;;;;;;;;;;;;7.80;49.02;99883.73;106068;1256;74442;-78
2024/01/02 15:38:05;;;;;;;;;;;;;;;7.83;48.93;99884.60;105927;1258;60418;-78
2024/01/02 15:40:40;;;;;;;;;;;;;;;7.72;48.99;99888.20;106077;1253;60368;-78
2024/01/02 15:43:19;;;;;;;;;;;;;;;7.55;49.29;99892.84;106100;1253;74992;-79
2024/01/02 15:46:01;;;;;;;;;;;;;;;7.67;49.16;99892.02;106083;1253;67539;-78
2024/01/02 15:48:47;;;;;;;;;;;;;;;7.65;48.95;99897.83;105999;1253;72735;-80
2024/01/02 15:51:32;;;;;;;;;;;;;;;7.70;48.80;99893.64;106098;1258;61922;-78
2024/01/02 15:54:07;;;;;;;;;;;;;;;7.67;48.69;99900.51;106215;1256;60334;-80
2024/01/02 15:56:41;;;;;;;;;;;;;;;7.53;48.96;99905.19;106358;1253;74363;-78
2024/01/02 15:59:21;;;;;;;;;;;;;;;7.48;49.13;99908.34;106030;1258;68409;-78
2024/01/02 16:02:09;;;;;;;;;;;;;;;7.66;48.84;99906.20;106154;1251;72945;-80
2024/01/02 16:04:52;;;;;;;;;;;;;;;7.52;49.04;99910.90;106141;1253;60527;-78
2024/01/02 16:07:33;;;;;;;;;;;;;;;7.46;49.37;99914.98;106168;1256;60353;-80
2024/01/02 16:10:15;;;;;;;;;;;;;;;7.43;49.55;99915.84;106198;1257;72860;-80
2024/01/02 16:12:56;;;;;;;;;;;;;;;7.51;48.86;99917.91;106146;1253;69191;-80
2024/01/02 16:15:38;;;;;;;;;;;;;;;7.57;48.45;99914.96;105988;1251;74266;-80
2024/01/02 16:18:33;;;;;;;;;;;;;;;7.50;48.43;99919.42;106052;1253;60620;-80
2024/01/02 16:21:27;;;;;;;;;;;;;;;7.46;48.15;99927.77;106058;1258;60510;-80
2024/01/02 16:24:12;;;;;;;;;;;;;;;7.37;48.11;99927.52;106058;1257;74970;-81
2024/01/02 16:27:11;;;;;;;;;;;;;;;7.33;48.20;99928.28;106426;1257;70669;-77
2024/01/02 16:29:54;;;;;;;;;;;;;;;7.28;48.02;99934.16;106779;1254;71705;-79
2024/01/02 16:32:37;;;;;;;;;;;;;;;7.22;48.17;99940.83;106604;1252;60461;-77
2024/01/02 16:35:24;;;;;;;;;;;;;;;7.25;47.99;99942.79;107208;1253;60703;-80
2024/01/02 16:37:56;;;;;;;;;;;;;;;7.14;47.90;99943.80;108337;1253;73559;-79
2024/01/02 16:40:49;;;;;;;;;;;;;;;7.08;47.90;99950.85;106062;1253;72947;-77
2024/01/02 16:43:23;;;;;;;;;;;;;;;7.08;47.73;99953.46;106038;1257;73603;-81
2024/01/02 16:45:54;;;;;;;;;;;;;;;7.09;47.75;99956.61;106005;1255;60476;-77
2024/01/02 16:48:22;;;;;;;;;;;;;;;7.10;47.42;99956.23;106019;1253;60620;-77
2024/01/02 16:50:56;;;;;;;;;;;;;;;7.05;47.16;99956.06;105965;1253;74702;-79
2024/01/02 16:53:30;;;;;;;;;;;;;;;6.98;47.08;99958.10;106221;1253;69701;-77
2024/01/02 16:55:58;;;;;;;;;;;;;;;6.98;47.24;99960.23;105885;1253;74451;-79
2024/01/02 16:58:35;;;;;;;;;;;;;;;7.15;46.95;99965.10;106324;1253;60542;-77
2024/01/02 17:01:11;;;;;;;;;;;;;;;7.13;46.80;99966.40;106061;1253;60632;-79
2024/01/02 17:03:45;;;;;;;;;;;;;;;7.00;47.03;99973.11;106282;1251;75187;-78
2024/01/02 17:06:13;;;;;;;;;;;;;;;7.00;47.11;99978.21;106158;1251;70433;-78
2024/01/02 17:08:47;;;;;;;;;;;;;;;7.18;46.64;99984.46;106094;1257;74054;-77
2024/01/02 17:11:21;;;;;;;;;;;;;;;7.24;46.28;99983.06;106153;1257;62609;-81
2024/01/02 17:13:56;;;;;;;;;;;;;;;7.05;46.38;99988.94;107378;1257;60535;-78
2024/01/02 17:16:24;;;;;;;;;;;;;;;6.93;46.72;99990.64;106048;1253;75412;-78
2024/01/02 17:18:58;;;;;;;;;;;;;;;6.72;46.85;99998.05;106084;1257;70002;-79
2024/01/02 17:21:31;;;;;;;;;;;;;;;6.82;46.93;99996.08;105888;1256;73971;-77
2024/01/02 17:24:06;;;;;;;;;;;;;;;6.83;46.71;100001.08;105934;1255;61078;-79
2024/01/02 17:26:34;;;;;;;;;;;;;;;6.62;47.00;100001.20;106086;1253;61866;-79
2024/01/02 17:29:08;;;;;;;;;;;;;;;6.53;47.19;100007.89;105967;1253;74494;-77
2024/01/02 17:31:42;;;;;;;;;;;;;;;6.53;46.64;100013.64;106142;1256;70823;-79
2024/01/02 17:34:10;;;;;;;;;;;;;;;6.45;46.87;100015.02;106123;1251;73512;-78
2024/01/02 17:36:44;;;;;;;;;;;;;;;6.37;47.04;100017.68;106241;1253;61312;-80
2024/01/02 17:39:22;;;;;;;;;;;;;;;6.30;46.93;100016.87;105942;1253;60424;-78
2024/01/02 17:41:56;;;;;;;;;;;;;;;6.24;47.28;100023.62;106005;1253;73446;-78
2024/01/02 17:44:25;;;;;;;;;;;;;;;6.26;47.32;100027.37;107022;1253;70285;-80
2024/01/02 17:46:56;;;;;;;;;;;;;;;6.20;47.30;100028.86;106138;1253;75523;-78
2024/01/02 17:49:31;;;;;;;;;;;;;;;6.32;46.85;100026.00;106452;1257;60519;-82
2024/01/02 17:52:05;;;;;;;;;;;;;;;6.37;46.77;100020.29;106159;1251;61658;-79
2024/01/02 17:54:33;;;;;;;;;;;;;;;6.38;46.37;100020.83;106278;1257;75492;-78
2024/01/02 17:57:23;;;;;;;;;;;;;;;6.41;46.42;100018.35;106109;1253;70316;-78
2024/01/02 18:00:04;;;;;;;;;;;;;;;6.43;46.50;100020.64;106136;1251;73661;-79